Time;durP1;ratioP1;P1;durP2;ratioP2;P2;SDS_P1;SDS_P2;PMS_P1;PMS_P2;Temp;Humidity;BMP_temperature;BMP_pressure;BME280_temperature;BME280_humidity;BME280_pressure;Samples;Min_cycle;Max_cycle;Signal;HPM_P1;HPM_P2
2024/01/09 00:01:02;;;;;;;38.17;34.35;;;5.10;1.00;;;;;;5045638;28;20511;-61
2024/01/09 00:03:27;;;;;;;42.03;37.70;;;5.10;1.00;;;;;;5037961;28;20057;-62
2024/01/09 00:05:53;;;;;;;37.70;33.88;;;5.10;1.00;;;;;;5057912;28;20487;-62
2024/01/09 00:08:19;;;;;;;39.30;35.20;;;5.00;1.00;;;;;;5058363;28;20045;-62
2024/01/09 00:10:44;;;;;;;38.63;34.50;;;5.10;1.00;;;;;;5044548;28;20461;-63
2024/01/09 00:13:10;;;;;;;40.85;36.08;;;5.00;1.00;;;;;;5046271;28;20495;-63
2024/01/09 00:15:35;;;;;;;36.00;32.42;;;5.10;1.00;;;;;;5044471;28;20048;-62
2024/01/09 00:18:01;;;;;;;37.28;33.05;;;5.20;1.00;;;;;;5038380;28;20487;-62
2024/01/09 00:20:26;;;;;;;39.38;35.38;;;5.00;1.00;;;;;;5025686;28;20420;-63
2024/01/09 00:22:52;;;;;;;34.90;31.38;;;5.00;1.00;;;;;;5024110;28;20438;-62
2024/01/09 00:25:18;;;;;;;37.08;33.28;;;5.00;1.00;;;;;;5043597;28;20041;-62
2024/01/09 00:27:44;;;;;;;39.80;35.70;;;5.00;1.00;;;;;;5044302;28;20399;-62
2024/01/09 00:30:10;;;;;;;37.65;33.88;;;5.00;1.00;;;;;;5045482;28;20427;-62
2024/01/09 00:32:36;;;;;;;38.88;34.58;;;4.90;1.00;;;;;;5044976;28;20052;-61
2024/01/09 00:35:02;;;;;;;35.38;31.92;;;4.90;1.00;;;;;;5043932;28;20041;-62
2024/01/09 00:37:28;;;;;;;38.22;34.15;;;4.90;1.00;;;;;;5045578;28;20596;-61
2024/01/09 00:39:53;;;;;;;36.33;32.60;;;4.90;1.00;;;;;;5044948;28;20574;-62
2024/01/09 00:42:19;;;;;;;36.55;32.78;;;4.90;1.00;;;;;;5025496;28;20045;-64
2024/01/09 00:44:44;;;;;;;40.78;36.67;;;4.80;1.00;;;;;;5025847;28;20308;-62
2024/01/09 00:47:10;;;;;;;39.25;35.15;;;4.80;1.00;;;;;;5029936;28;20079;-63
2024/01/09 00:49:36;;;;;;;37.70;33.90;;;4.80;1.00;;;;;;5029435;28;20356;-62
2024/01/09 00:52:02;;;;;;;39.88;34.50;;;4.80;1.00;;;;;;5029174;28;20121;-61
2024/01/09 00:54:28;;;;;;;39.47;35.28;;;4.80;1.00;;;;;;5029267;28;20110;-62
2024/01/09 00:56:53;;;;;;;37.22;33.63;;;4.80;1.00;;;;;;5035580;28;20049;-61
2024/01/09 00:59:19;;;;;;;40.15;36.25;;;4.70;1.00;;;;;;5028864;28;20499;-62
2024/01/09 01:01:53;;;;;;;39.13;35.33;;;4.70;1.00;;;;;;5030432;28;20103;-62
2024/01/09 01:04:19;;;;;;;39.30;35.70;;;4.70;1.00;;;;;;5048876;28;20079;-62
2024/01/09 01:06:45;;;;;;;40.03;36.33;;;4.70;1.00;;;;;;5048679;28;20490;-62
2024/01/09 01:09:12;;;;;;;38.78;35.20;;;4.70;1.00;;;;;;5047388;28;20072;-61
2024/01/09 01:11:37;;;;;;;41.53;37.42;;;5.40;1.00;;;;;;5029699;28;20080;-62
2024/01/09 01:14:03;;;;;;;42.22;38.20;;;4.70;1.00;;;;;;5028627;28;20076;-62
2024/01/09 01:16:30;;;;;;;41.70;37.40;;;4.70;1.00;;;;;;5061182;28;20045;-64
2024/01/09 01:18:55;;;;;;;44.45;40.08;;;4.60;1.00;;;;;;5027362;28;20503;-61
2024/01/09 01:21:22;;;;;;;41.35;37.25;;;4.50;1.00;;;;;;5027516;28;20077;-61
2024/01/09 01:23:47;;;;;;;42.90;39.08;;;4.60;1.00;;;;;;5028586;28;20084;-62
2024/01/09 01:26:13;;;;;;;44.53;40.30;;;4.50;1.00;;;;;;5043762;28;20501;-62
2024/01/09 01:28:40;;;;;;;45.42;41.30;;;4.50;1.00;;;;;;5048166;28;20041;-61
2024/01/09 01:31:05;;;;;;;44.78;40.38;;;4.50;1.00;;;;;;5047727;28;20049;-62
2024/01/09 01:33:31;;;;;;;42.45;38.08;;;4.60;1.00;;;;;;5032364;28;20845;-62
2024/01/09 01:35:56;;;;;;;45.55;41.35;;;4.50;1.00;;;;;;5036862;28;20044;-62
2024/01/09 01:38:22;;;;;;;43.78;39.28;;;4.50;1.00;;;;;;5037406;28;20052;-61
2024/01/09 01:40:47;;;;;;;45.72;40.85;;;4.50;1.00;;;;;;5043327;28;20059;-61
2024/01/09 01:43:13;;;;;;;41.60;36.97;;;4.40;1.00;;;;;;5046935;28;20102;-62
2024/01/09 01:45:38;;;;;;;46.83;42.20;;;4.40;1.00;;;;;;5029803;28;20045;-61
2024/01/09 01:48:05;;;;;;;43.78;39.60;;;4.40;1.00;;;;;;5038513;28;20116;-61
2024/01/09 01:50:31;;;;;;;44.65;40.63;;;4.40;1.00;;;;;;5053460;28;20037;-61
2024/01/09 01:52:59;;;;;;;47.97;43.58;;;4.40;1.00;;;;;;5040755;28;20044;-62
2024/01/09 01:55:25;;;;;;;46.17;41.90;;;4.40;1.00;;;;;;5039212;28;20045;-62
2024/01/09 01:57:55;;;;;;;45.00;40.75;;;4.40;1.00;;;;;;5041668;28;20617;-61
2024/01/09 02:00:22;;;;;;;45.25;40.88;;;4.40;1.00;;;;;;5026305;28;20473;-61
2024/01/09 02:02:49;;;;;;;45.83;41.63;;;4.40;1.00;;;;;;5025990;28;20056;-61
2024/01/09 02:05:20;;;;;;;45.30;41.08;;;4.30;1.00;;;;;;5027665;28;20057;-62
2024/01/09 02:07:50;;;;;;;45.95;41.75;;;4.30;1.00;;;;;;5027584;28;20511;-61
2024/01/09 02:10:20;;;;;;;45.50;41.30;;;4.40;1.00;;;;;;5035392;28;20049;-62
2024/01/09 02:12:47;;;;;;;44.30;40.40;;;4.30;1.00;;;;;;5042124;28;20116;-62
2024/01/09 02:15:13;;;;;;;44.85;40.75;;;4.40;1.00;;;;;;5026314;28;20449;-61
2024/01/09 02:17:38;;;;;;;44.38;40.35;;;4.30;1.00;;;;;;5026328;28;20051;-61
2024/01/09 02:20:11;;;;;;;43.33;39.25;;;4.30;1.00;;;;;;5027600;28;20518;-61
2024/01/09 02:22:37;;;;;;;45.72;41.47;;;4.30;1.00;;;;;;5027729;28;20045;-63
2024/01/09 02:25:03;;;;;;;46.40;41.95;;;4.20;1.00;;;;;;5040948;28;20029;-61
2024/01/09 02:27:58;;;;;;;47.13;42.53;;;4.20;1.00;;;;;;5045639;28;20507;-61
2024/01/09 02:30:25;;;;;;;45.58;41.13;;;4.20;1.00;;;;;;5045367;28;20048;-61
2024/01/09 02:32:51;;;;;;;44.63;40.75;;;4.20;1.00;;;;;;5047478;28;20097;-62
2024/01/09 02:35:17;;;;;;;45.72;41.50;;;4.20;1.00;;;;;;5043809;28;20142;-62
2024/01/09 02:37:42;;;;;;;46.97;42.63;;;4.10;1.00;;;;;;5046707;28;20354;-61
2024/01/09 02:40:08;;;;;;;47.72;43.33;;;4.10;1.00;;;;;;5049448;28;20052;-63
2024/01/09 02:42:34;;;;;;;49.17;44.67;;;4.10;1.00;;;;;;5046836;28;20044;-62
2024/01/09 02:45:00;;;;;;;48.42;43.92;;;4.10;1.00;;;;;;5030232;28;20485;-61
2024/01/09 02:47:26;;;;;;;45.15;41.05;;;4.10;1.00;;;;;;5047323;28;20040;-61
2024/01/09 02:49:52;;;;;;;47.17;42.53;;;4.00;1.00;;;;;;5047442;28;20044;-61
2024/01/09 02:52:18;;;;;;;48.70;44.10;;;4.10;1.00;;;;;;5046412;28;20049;-61
2024/01/09 02:54:44;;;;;;;46.90;42.28;;;4.00;1.00;;;;;;5047392;28;20120;-60
2024/01/09 02:57:11;;;;;;;50.83;46.08;;;4.10;1.00;;;;;;5046314;28;20570;-61
2024/01/09 02:59:38;;;;;;;50.63;45.67;;;4.10;1.00;;;;;;5046664;28;20057;-62
2024/01/09 03:02:04;;;;;;;47.10;42.47;;;4.10;1.00;;;;;;5043221;28;20058;-62
2024/01/09 03:04:30;;;;;;;50.58;46.08;;;4.00;1.00;;;;;;5048323;28;20135;-62
2024/01/09 03:06:56;;;;;;;52.17;46.72;;;4.10;1.00;;;;;;5050104;28;20111;-62
2024/01/09 03:09:21;;;;;;;50.97;46.40;;;4.10;1.00;;;;;;5047524;28;20090;-61
2024/01/09 03:11:47;;;;;;;51.92;47.20;;;4.00;1.00;;;;;;5045775;28;20045;-62
2024/01/09 03:14:14;;;;;;;47.95;43.30;;;4.10;1.00;;;;;;5046253;28;20048;-61
2024/01/09 03:16:39;;;;;;;49.90;45.10;;;4.00;1.00;;;;;;5045978;28;20098;-61
2024/01/09 03:19:05;;;;;;;51.40;46.55;;;3.90;1.00;;;;;;5049211;28;20046;-62
2024/01/09 03:21:30;;;;;;;49.53;44.63;;;4.00;1.00;;;;;;5044651;28;20145;-61
2024/01/09 03:23:56;;;;;;;47.72;42.80;;;4.00;1.00;;;;;;5041777;28;20045;-61
2024/01/09 03:26:22;;;;;;;49.05;44.45;;;4.00;1.00;;;;;;5026578;28;20091;-61
2024/01/09 03:28:48;;;;;;;47.80;42.95;;;4.00;1.00;;;;;;5026216;28;20102;-61
2024/01/09 03:31:23;;;;;;;46.80;42.50;;;3.90;1.00;;;;;;5026572;28;20053;-61
2024/01/09 03:33:50;;;;;;;46.42;41.92;;;4.00;1.00;;;;;;5044672;28;20128;-62
2024/01/09 03:36:17;;;;;;;45.10;40.80;;;4.00;1.00;;;;;;5046849;28;20049;-62
2024/01/09 03:38:43;;;;;;;43.80;39.70;;;4.00;1.00;;;;;;5045490;28;20041;-62
2024/01/09 03:41:09;;;;;;;44.35;40.08;;;4.00;1.00;;;;;;5046149;28;20098;-64
2024/01/09 03:43:35;;;;;;;43.08;38.88;;;4.10;1.00;;;;;;5046093;28;20036;-61
2024/01/09 03:46:01;;;;;;;45.20;40.92;;;4.00;1.00;;;;;;5045638;28;20094;-61
2024/01/09 03:48:26;;;;;;;43.67;39.80;;;4.00;1.00;;;;;;5027983;28;20037;-62
2024/01/09 03:50:52;;;;;;;44.65;40.85;;;4.00;1.00;;;;;;5025914;28;20045;-61
2024/01/09 03:53:18;;;;;;;44.38;40.40;;;4.00;1.00;;;;;;5025978;28;20045;-61
2024/01/09 03:55:43;;;;;;;42.10;38.40;;;4.00;1.00;;;;;;5026293;28;20076;-61
2024/01/09 03:58:11;;;;;;;46.28;41.97;;;4.00;1.00;;;;;;5039886;28;20099;-61
2024/01/09 04:00:37;;;;;;;39.15;35.63;;;4.00;1.00;;;;;;5044461;28;20136;-61
2024/01/09 04:03:04;;;;;;;41.33;37.53;;;4.00;1.00;;;;;;5029340;28;20049;-61
2024/01/09 04:05:29;;;;;;;41.83;37.92;;;3.90;1.00;;;;;;5025709;28;20038;-63
2024/01/09 04:07:55;;;;;;;41.17;36.85;;;4.00;1.00;;;;;;5036729;28;20041;-61
2024/01/09 04:10:21;;;;;;;37.10;33.53;;;4.10;1.00;;;;;;5045688;28;20491;-61
2024/01/09 04:12:46;;;;;;;38.72;34.92;;;4.00;1.00;;;;;;5033187;28;20489;-61
2024/01/09 04:15:12;;;;;;;38.83;35.13;;;4.00;1.00;;;;;;5025619;28;20423;-62
2024/01/09 04:17:38;;;;;;;39.42;35.92;;;4.00;1.00;;;;;;5039066;28;20049;-62
2024/01/09 04:20:05;;;;;;;41.22;37.63;;;4.00;1.00;;;;;;5045921;28;20131;-63
2024/01/09 04:22:30;;;;;;;40.42;36.95;;;4.00;1.00;;;;;;5048577;28;20060;-62
2024/01/09 04:24:56;;;;;;;40.88;37.38;;;4.00;1.00;;;;;;5033192;28;20034;-61
2024/01/09 04:27:22;;;;;;;40.03;36.72;;;3.90;1.00;;;;;;5029608;28;20091;-61
2024/01/09 04:29:48;;;;;;;42.53;38.80;;;4.00;1.00;;;;;;5029426;28;20084;-61
2024/01/09 04:32:13;;;;;;;39.65;36.30;;;4.00;1.00;;;;;;5042653;28;20053;-61
2024/01/09 04:34:39;;;;;;;35.50;32.03;;;4.00;1.00;;;;;;5029712;28;20041;-62
2024/01/09 04:37:04;;;;;;;37.10;33.28;;;4.00;1.00;;;;;;5029366;28;20362;-61
2024/01/09 04:39:30;;;;;;;38.00;34.50;;;4.00;1.00;;;;;;5043835;28;20124;-62
2024/01/09 04:41:56;;;;;;;35.95;32.72;;;3.90;1.00;;;;;;5049406;28;20129;-61
2024/01/09 04:44:22;;;;;;;38.95;31.92;;;3.90;1.00;;;;;;5049217;28;20040;-61
2024/01/09 04:46:47;;;;;;;35.63;32.33;;;3.90;1.00;;;;;;5047683;28;20112;-62
2024/01/09 04:49:13;;;;;;;34.92;31.92;;;4.00;1.00;;;;;;5032376;28;20037;-63
2024/01/09 04:51:40;;;;;;;37.28;33.88;;;3.90;1.00;;;;;;5044318;28;20908;-60
2024/01/09 04:54:06;;;;;;;38.13;34.90;;;3.90;1.00;;;;;;5029176;28;20065;-60
2024/01/09 04:56:31;;;;;;;38.60;35.40;;;3.90;1.00;;;;;;5035897;28;20045;-60
2024/01/09 04:58:57;;;;;;;36.70;33.58;;;3.90;1.00;;;;;;5048539;28;20384;-61
2024/01/09 05:01:23;;;;;;;32.38;29.42;;;3.90;1.00;;;;;;5048858;28;20110;-61
2024/01/09 05:03:49;;;;;;;33.90;30.90;;;3.90;1.00;;;;;;5040022;28;20110;-61
2024/01/09 05:06:19;;;;;;;34.85;32.05;;;3.90;1.00;;;;;;5028605;28;20119;-62
2024/01/09 05:08:45;;;;;;;35.28;32.15;;;3.90;1.00;;;;;;5036096;28;20087;-62
2024/01/09 05:11:11;;;;;;;35.13;32.08;;;3.80;1.00;;;;;;5048693;28;20789;-61
2024/01/09 05:13:37;;;;;;;35.10;32.10;;;3.80;1.00;;;;;;5047695;28;20411;-60
2024/01/09 05:16:04;;;;;;;36.80;33.63;;;3.80;1.00;;;;;;5048662;28;20045;-61
2024/01/09 05:18:30;;;;;;;36.10;33.13;;;3.80;1.00;;;;;;5046955;28;20457;-62
2024/01/09 05:20:55;;;;;;;35.45;32.55;;;3.80;1.00;;;;;;5030521;28;20081;-60
2024/01/09 05:23:21;;;;;;;33.92;31.15;;;3.80;1.00;;;;;;5028522;28;20464;-61
2024/01/09 05:25:47;;;;;;;36.55;33.63;;;3.80;1.00;;;;;;5027647;28;20049;-61
2024/01/09 05:28:12;;;;;;;36.45;32.92;;;3.80;1.00;;;;;;5028535;28;20121;-61
2024/01/09 05:30:38;;;;;;;36.78;33.55;;;3.80;1.00;;;;;;5026380;28;20091;-60
2024/01/09 05:33:04;;;;;;;37.65;34.05;;;3.80;1.00;;;;;;5044982;28;20045;-61
2024/01/09 05:35:30;;;;;;;37.45;33.97;;;3.70;1.00;;;;;;5047810;28;20032;-61
2024/01/09 05:37:55;;;;;;;36.80;33.70;;;3.80;1.00;;;;;;5043295;28;20075;-61
2024/01/09 05:40:21;;;;;;;37.08;33.88;;;3.80;1.00;;;;;;5043102;28;20065;-61
2024/01/09 05:42:46;;;;;;;36.22;33.05;;;3.80;1.00;;;;;;5028232;28;20033;-61
2024/01/09 05:45:13;;;;;;;38.70;35.20;;;3.80;1.00;;;;;;5028372;28;20123;-60
2024/01/09 05:47:38;;;;;;;35.97;32.65;;;3.70;1.00;;;;;;5028715;28;20044;-61
2024/01/09 05:50:05;;;;;;;36.88;33.47;;;3.70;1.00;;;;;;5027004;28;20073;-62
2024/01/09 05:52:31;;;;;;;38.20;34.90;;;3.70;1.00;;;;;;5030575;28;20490;-61
2024/01/09 05:54:57;;;;;;;37.42;34.30;;;3.70;1.00;;;;;;5046367;28;20048;-60
2024/01/09 05:57:22;;;;;;;36.67;33.58;;;3.70;1.00;;;;;;5047406;28;20049;-61
2024/01/09 05:59:48;;;;;;;38.72;35.28;;;3.60;1.00;;;;;;5047310;28;20057;-60
2024/01/09 06:02:14;;;;;;;38.63;35.17;;;3.70;1.00;;;;;;5042916;28;20051;-62
2024/01/09 06:04:39;;;;;;;36.60;33.25;;;3.60;1.00;;;;;;5047255;28;20413;-60
2024/01/09 06:07:05;;;;;;;36.28;32.97;;;3.70;1.00;;;;;;5046067;28;20037;-61
2024/01/09 06:09:30;;;;;;;37.00;33.90;;;3.60;1.00;;;;;;5027447;28;20045;-60
2024/01/09 06:11:56;;;;;;;36.88;33.25;;;3.70;1.00;;;;;;5027334;28;20041;-61
2024/01/09 06:14:22;;;;;;;34.70;31.58;;;3.70;1.00;;;;;;5027535;28;20091;-61
2024/01/09 06:16:47;;;;;;;33.50;30.42;;;3.60;1.00;;;;;;5027167;28;20161;-61
2024/01/09 06:19:13;;;;;;;34.03;30.60;;;3.70;1.00;;;;;;5043462;28;20059;-60
2024/01/09 06:21:39;;;;;;;35.03;32.03;;;3.60;1.00;;;;;;5049684;28;20036;-60
2024/01/09 06:24:04;;;;;;;33.95;30.92;;;3.70;1.00;;;;;;5046508;28;20037;-61
2024/01/09 06:26:30;;;;;;;32.60;30.00;;;3.60;1.00;;;;;;5046789;28;20120;-60
2024/01/09 06:28:55;;;;;;;35.03;32.25;;;3.70;1.00;;;;;;5043117;28;20490;-60
2024/01/09 06:31:21;;;;;;;31.33;28.63;;;3.60;1.00;;;;;;5046744;28;20041;-60
2024/01/09 06:33:46;;;;;;;31.23;28.50;;;3.60;1.00;;;;;;5046701;28;20068;-61
2024/01/09 06:36:12;;;;;;;37.15;33.85;;;3.60;1.00;;;;;;5046564;28;20339;-60
2024/01/09 06:38:41;;;;;;;34.35;31.38;;;3.60;1.00;;;;;;5042831;28;20107;-60
2024/01/09 06:41:06;;;;;;;34.35;31.55;;;3.60;1.00;;;;;;5027549;28;20370;-61
2024/01/09 06:43:32;;;;;;;35.80;32.80;;;3.60;1.00;;;;;;5040564;28;20280;-60
2024/01/09 06:45:58;;;;;;;34.45;31.73;;;3.60;1.00;;;;;;5027046;28;20134;-60
2024/01/09 06:48:23;;;;;;;33.78;30.98;;;3.50;1.00;;;;;;5027168;28;20041;-62
2024/01/09 06:50:49;;;;;;;34.05;31.33;;;3.50;1.00;;;;;;5026791;28;20478;-60
2024/01/09 06:53:14;;;;;;;34.65;31.65;;;3.50;1.00;;;;;;4989268;28;20081;-60
2024/01/09 06:55:40;;;;;;;29.25;26.83;;;3.50;1.00;;;;;;4991460;28;20085;-61
2024/01/09 06:58:05;;;;;;;32.38;29.50;;;3.50;1.00;;;;;;4999207;28;20062;-60
2024/01/09 07:00:31;;;;;;;33.03;30.00;;;3.50;1.00;;;;;;5002897;28;20041;-59
2024/01/09 07:02:57;;;;;;;34.15;31.33;;;3.50;1.00;;;;;;4987221;28;20037;-60
2024/01/09 07:05:22;;;;;;;34.58;31.48;;;3.50;1.00;;;;;;4993113;28;20046;-60
2024/01/09 07:07:48;;;;;;;34.67;31.58;;;3.40;1.00;;;;;;4997580;28;20078;-59
2024/01/09 07:10:13;;;;;;;32.90;30.13;;;3.40;1.00;;;;;;4991345;28;20045;-61
2024/01/09 07:12:39;;;;;;;32.63;30.02;;;3.40;1.00;;;;;;4994721;28;20576;-60
2024/01/09 07:15:08;;;;;;;36.05;32.95;;;3.40;1.00;;;;;;4976036;28;20477;-60
2024/01/09 07:17:33;;;;;;;31.67;28.67;;;3.40;1.00;;;;;;4998007;28;20052;-59
2024/01/09 07:19:59;;;;;;;31.33;28.30;;;3.40;1.00;;;;;;4996184;28;20461;-60
2024/01/09 07:22:24;;;;;;;33.55;30.48;;;3.40;1.00;;;;;;4993112;28;20460;-60
2024/01/09 07:24:50;;;;;;;33.03;30.23;;;3.40;1.00;;;;;;4991433;28;20033;-60
2024/01/09 07:27:16;;;;;;;33.17;30.30;;;3.40;1.00;;;;;;4993236;28;20049;-59
2024/01/09 07:29:41;;;;;;;30.08;27.48;;;3.60;1.00;;;;;;4982440;28;20056;-60
2024/01/09 07:32:07;;;;;;;30.15;27.65;;;3.30;1.00;;;;;;4992024;28;20065;-60
2024/01/09 07:34:32;;;;;;;31.05;28.65;;;3.30;1.00;;;;;;4994258;28;20077;-59
2024/01/09 07:36:58;;;;;;;31.23;28.55;;;3.30;1.00;;;;;;4993899;28;20045;-59
2024/01/09 07:39:23;;;;;;;31.23;28.58;;;3.30;1.00;;;;;;4991758;28;20038;-60
2024/01/09 07:41:49;;;;;;;30.25;27.58;;;3.30;1.00;;;;;;4988714;28;20045;-60
2024/01/09 07:44:15;;;;;;;31.30;28.30;;;3.30;1.00;;;;;;4990162;28;20046;-60
2024/01/09 07:46:42;;;;;;;31.23;28.35;;;3.30;1.00;;;;;;4992352;28;20121;-61
2024/01/09 07:49:07;;;;;;;32.65;29.77;;;3.90;1.00;;;;;;4989636;28;20059;-62
2024/01/09 07:51:33;;;;;;;31.35;28.45;;;3.30;1.00;;;;;;4994547;28;20034;-60
2024/01/09 07:53:58;;;;;;;30.85;28.15;;;3.30;1.00;;;;;;4991407;28;20499;-60
2024/01/09 07:56:24;;;;;;;32.22;29.30;;;3.20;1.00;;;;;;4994368;28;20048;-59
2024/01/09 07:58:50;;;;;;;31.02;28.30;;;3.20;1.00;;;;;;4985012;28;20140;-63
2024/01/09 08:01:16;;;;;;;33.65;30.85;;;3.30;1.00;;;;;;4992637;28;20100;-60
2024/01/09 08:03:42;;;;;;;32.00;29.50;;;3.20;1.00;;;;;;4994636;28;20045;-59
2024/01/09 08:06:16;;;;;;;32.80;29.45;;;3.20;1.00;;;;;;4994161;28;20033;-61
2024/01/09 08:08:42;;;;;;;32.20;29.10;;;3.20;1.00;;;;;;4993666;28;20571;-59
2024/01/09 08:11:09;;;;;;;31.45;28.35;;;3.20;1.00;;;;;;4994499;28;20520;-60
2024/01/09 08:13:35;;;;;;;31.45;28.80;;;3.20;1.00;;;;;;4997054;28;20048;-60
2024/01/09 08:16:01;;;;;;;29.30;26.80;;;3.20;1.00;;;;;;4996773;28;20046;-60
2024/01/09 08:18:27;;;;;;;30.58;27.85;;;3.20;1.00;;;;;;4994513;28;20392;-60
2024/01/09 08:20:53;;;;;;;30.48;27.77;;;3.30;1.00;;;;;;4997038;28;20069;-60
2024/01/09 08:23:19;;;;;;;29.67;27.13;;;3.20;1.00;;;;;;4999397;28;20049;-60
2024/01/09 08:25:45;;;;;;;26.10;24.02;;;3.20;1.00;;;;;;4995292;28;20039;-61
2024/01/09 08:28:10;;;;;;;28.90;26.60;;;3.20;1.00;;;;;;4999608;28;20076;-60
2024/01/09 08:30:36;;;;;;;29.65;26.98;;;3.30;1.00;;;;;;5000311;28;20460;-61
2024/01/09 08:33:02;;;;;;;29.00;26.50;;;3.30;1.00;;;;;;4994433;28;20038;-61
2024/01/09 08:35:28;;;;;;;30.35;27.55;;;3.20;1.00;;;;;;4992844;28;20484;-60
2024/01/09 08:37:53;;;;;;;28.95;26.55;;;3.30;1.00;;;;;;4993797;28;20045;-60
2024/01/09 08:40:19;;;;;;;30.02;27.33;;;4.00;1.00;;;;;;4996296;28;20042;-63
2024/01/09 08:42:44;;;;;;;29.95;27.33;;;3.30;1.00;;;;;;4994590;28;20104;-61
2024/01/09 08:45:11;;;;;;;31.50;28.70;;;3.30;1.00;;;;;;4994292;28;20559;-60
2024/01/09 08:47:37;;;;;;;30.42;27.73;;;3.30;1.00;;;;;;4996594;28;20033;-60
2024/01/09 08:50:04;;;;;;;30.17;27.58;;;3.40;1.00;;;;;;4992774;28;20088;-61
2024/01/09 08:52:30;;;;;;;31.02;28.33;;;3.40;1.00;;;;;;4992626;28;20048;-62
2024/01/09 08:54:56;;;;;;;32.55;29.63;;;3.50;1.00;;;;;;4992099;28;20081;-60
2024/01/09 08:57:22;;;;;;;31.30;28.55;;;3.60;1.00;;;;;;4991926;28;20617;-60
2024/01/09 08:59:48;;;;;;;31.50;28.60;;;3.60;1.00;;;;;;4992895;28;20058;-60
2024/01/09 09:02:14;;;;;;;30.67;27.95;;;3.50;1.00;;;;;;4994578;28;20039;-60
2024/01/09 09:04:40;;;;;;;32.00;29.10;;;3.50;1.00;;;;;;4991849;28;20053;-61
2024/01/09 09:07:06;;;;;;;31.30;28.60;;;3.90;1.00;;;;;;4994348;28;20048;-60
2024/01/09 09:09:34;;;;;;;29.67;26.95;;;3.50;1.00;;;;;;4997569;28;20038;-60
2024/01/09 09:12:01;;;;;;;29.40;26.83;;;3.60;1.00;;;;;;4996013;28;21358;-61
2024/01/09 09:14:26;;;;;;;28.02;25.40;;;3.60;1.00;;;;;;5000671;28;20054;-60
2024/01/09 09:16:52;;;;;;;29.05;26.42;;;3.70;1.00;;;;;;4996306;28;20053;-61
2024/01/09 09:19:20;;;;;;;27.42;25.13;;;3.70;1.00;;;;;;4993842;28;20389;-60
2024/01/09 09:21:45;;;;;;;28.48;26.13;;;3.70;1.00;;;;;;4995583;28;20042;-62
2024/01/09 09:24:11;;;;;;;27.33;24.85;;;3.70;1.00;;;;;;5000832;28;20050;-62
2024/01/09 09:26:36;;;;;;;27.95;25.15;;;3.80;1.00;;;;;;4998339;28;20091;-60
2024/01/09 09:29:02;;;;;;;25.63;23.52;;;3.80;1.00;;;;;;4995460;28;20100;-61
2024/01/09 09:31:28;;;;;;;26.70;24.30;;;3.80;1.00;;;;;;4996293;28;20488;-62
2024/01/09 09:33:55;;;;;;;24.58;22.17;;;4.00;1.00;;;;;;4997390;28;20515;-61
2024/01/09 09:36:21;;;;;;;22.52;20.83;;;4.10;1.00;;;;;;5003835;28;20045;-60
2024/01/09 09:38:47;;;;;;;23.80;21.85;;;4.20;1.00;;;;;;5000762;28;20081;-61
2024/01/09 09:41:16;;;;;;;22.90;20.80;;;4.30;1.00;;;;;;4995315;28;20829;-60
2024/01/09 09:43:52;;;;;;;18.80;17.00;;;4.30;1.00;;;;;;4997076;28;20045;-64
2024/01/09 09:46:25;;;;;;;;;;;4.30;1.00;;;;;;5001369;28;20411;-61
2024/01/09 09:48:55;;;;;;;12.68;11.45;;;4.30;1.00;;;;;;4997187;28;19921;-62
2024/01/09 09:51:21;;;;;;;10.85;9.85;;;4.30;1.00;;;;;;4993718;28;20077;-60
2024/01/09 09:53:47;;;;;;;10.35;7.78;;;4.30;1.00;;;;;;4996554;28;20601;-61
2024/01/09 09:56:13;;;;;;;9.23;8.32;;;4.30;1.00;;;;;;5001974;28;20054;-61
2024/01/09 09:58:39;;;;;;;13.15;7.80;;;4.20;1.00;;;;;;4994310;28;20057;-60
2024/01/09 10:01:12;;;;;;;8.43;7.65;;;4.20;1.00;;;;;;5002531;28;20060;-61
2024/01/09 10:03:45;;;;;;;7.07;6.10;;;4.30;1.00;;;;;;4993242;28;20042;-60
2024/01/09 10:06:15;;;;;;;9.02;6.90;;;4.30;1.00;;;;;;4976756;28;20096;-61
2024/01/09 10:08:46;;;;;;;7.38;5.90;;;4.40;1.00;;;;;;5002519;28;20496;-60
2024/01/09 10:11:12;;;;;;;7.45;6.40;;;4.40;1.00;;;;;;4997387;28;20129;-61
2024/01/09 10:13:39;;;;;;;8.07;6.22;;;4.50;1.00;;;;;;4995129;28;20768;-60
2024/01/09 10:16:05;;;;;;;6.25;5.65;;;4.50;1.00;;;;;;4995853;28;20053;-60
2024/01/09 10:18:31;;;;;;;5.55;4.53;;;4.60;1.00;;;;;;4997173;28;20306;-60
2024/01/09 10:21:00;;;;;;;7.57;4.80;;;4.60;1.00;;;;;;4994564;28;20592;-61
2024/01/09 10:23:27;;;;;;;6.40;4.82;;;4.60;1.00;;;;;;4991492;28;20053;-61
2024/01/09 10:25:54;;;;;;;8.40;4.93;;;4.70;1.00;;;;;;4991144;28;20153;-64
2024/01/09 10:28:19;;;;;;;9.23;4.57;;;4.70;1.00;;;;;;4998396;28;20038;-61
2024/01/09 10:30:45;;;;;;;4.05;3.65;;;4.80;1.00;;;;;;4997543;28;20033;-61
2024/01/09 10:33:12;;;;;;;6.35;3.70;;;5.00;1.00;;;;;;4994852;28;20583;-62
2024/01/09 10:35:38;;;;;;;5.40;4.07;;;5.10;1.00;;;;;;4990764;28;20129;-61
2024/01/09 10:38:04;;;;;;;4.43;3.50;;;5.20;1.00;;;;;;4996996;28;20137;-62
2024/01/09 10:40:29;;;;;;;10.20;3.67;;;5.10;1.00;;;;;;4990197;28;20058;-60
2024/01/09 10:42:55;;;;;;;7.38;3.35;;;5.20;1.00;;;;;;4992646;28;20034;-62
2024/01/09 10:45:26;;;;;;;5.13;3.80;;;5.20;1.00;;;;;;4991561;28;20038;-61
2024/01/09 10:47:53;;;;;;;5.70;3.20;;;5.20;1.00;;;;;;4998863;28;20849;-64
2024/01/09 10:50:21;;;;;;;6.45;3.60;;;5.20;1.00;;;;;;4995904;28;20042;-62
2024/01/09 10:52:50;;;;;;;8.82;3.47;;;5.30;1.00;;;;;;4990299;28;20124;-61
2024/01/09 10:55:18;;;;;;;7.72;3.15;;;6.00;1.00;;;;;;4993536;28;20037;-60
2024/01/09 10:57:45;;;;;;;5.30;2.83;;;5.30;1.00;;;;;;4991421;28;20052;-61
2024/01/09 11:00:11;;;;;;;4.97;2.95;;;5.40;1.00;;;;;;4998282;28;20224;-61
2024/01/09 11:02:38;;;;;;;7.55;3.55;;;5.40;1.00;;;;;;4998715;28;20033;-61
2024/01/09 11:05:10;;;;;;;3.38;2.97;;;5.50;1.00;;;;;;4995106;28;20220;-61
2024/01/09 11:07:37;;;;;;;7.50;3.08;;;5.50;1.00;;;;;;4992479;28;20508;-62
2024/01/09 11:10:06;;;;;;;4.07;2.80;;;5.60;1.00;;;;;;4996504;28;20061;-61
2024/01/09 11:12:39;;;;;;;4.60;2.97;;;5.70;1.00;;;;;;4987930;28;20530;-64
2024/01/09 11:15:24;;;;;;;4.18;2.83;;;5.70;99.90;;;;;;5002656;28;20609;-62
2024/01/09 11:18:00;;;;;;;5.38;3.33;;;5.80;99.90;;;;;;4992506;28;20455;-62
2024/01/09 11:20:27;;;;;;;7.32;3.45;;;5.90;99.90;;;;;;4993089;28;20377;-61
2024/01/09 11:22:52;;;;;;;5.03;3.10;;;6.00;99.90;;;;;;4995734;28;20500;-62
2024/01/09 11:25:23;;;;;;;5.22;3.03;;;6.20;99.90;;;;;;4990445;28;20050;-62
2024/01/09 11:27:51;;;;;;;3.72;2.90;;;6.30;99.90;;;;;;4997094;28;20508;-62
2024/01/09 11:30:21;;;;;;;5.65;3.15;;;6.40;99.90;;;;;;4990563;28;20054;-61
2024/01/09 11:32:47;;;;;;;3.90;2.75;;;6.30;99.90;;;;;;4992657;28;20049;-62
2024/01/09 11:35:14;;;;;;;4.40;3.00;;;6.30;99.90;;;;;;4990316;28;20117;-61
2024/01/09 11:37:46;;;;;;;7.38;4.65;;;6.00;99.90;;;;;;4995656;28;20128;-62
2024/01/09 11:40:12;;;;;;;8.05;3.65;;;6.40;99.90;;;;;;4993259;28;20137;-62
2024/01/09 11:42:48;;;;;;;4.32;3.10;;;6.40;99.90;;;;;;4995797;28;20485;-61
2024/01/09 11:45:20;;;;;;;5.28;3.08;;;6.40;99.90;;;;;;4998692;28;20467;-62
2024/01/09 11:47:46;;;;;;;3.83;2.75;;;6.40;99.90;;;;;;4995768;28;20551;-62
2024/01/09 11:50:12;;;;;;;8.20;4.03;;;6.40;99.90;;;;;;4989565;28;20137;-63
2024/01/09 11:52:39;;;;;;;6.35;3.63;;;6.40;99.90;;;;;;4989068;28;20050;-61
2024/01/09 11:55:12;;;;;;;4.97;3.13;;;6.40;99.90;;;;;;4994480;28;20049;-63
2024/01/09 11:57:39;;;;;;;5.00;3.08;;;6.40;99.90;;;;;;4990108;28;20488;-61
2024/01/09 12:00:08;;;;;;;4.13;3.13;;;6.40;99.90;;;;;;4993993;28;20132;-61
2024/01/09 12:02:36;;;;;;;3.80;2.70;;;6.50;99.90;;;;;;4992174;28;20045;-62
2024/01/09 12:05:04;;;;;;;3.95;2.72;;;6.50;99.90;;;;;;4991986;28;20045;-61
2024/01/09 12:07:32;;;;;;;5.22;2.78;;;6.50;99.90;;;;;;4990292;28;20818;-61
2024/01/09 12:09:57;;;;;;;2.90;2.50;;;6.80;99.90;;;;;;4993430;28;20045;-61
2024/01/09 12:12:24;;;;;;;2.65;2.42;;;6.50;99.90;;;;;;4992780;28;20042;-61
2024/01/09 12:14:58;;;;;;;4.68;2.70;;;6.50;99.90;;;;;;4994403;28;20045;-61
2024/01/09 12:17:33;;;;;;;6.38;2.83;;;6.50;99.90;;;;;;4995895;28;20058;-61
2024/01/09 12:20:04;;;;;;;4.25;2.55;;;6.50;99.90;;;;;;4991944;28;20586;-61
2024/01/09 12:22:36;;;;;;;4.32;2.80;;;6.50;99.90;;;;;;4993840;28;20593;-61
2024/01/09 12:25:03;;;;;;;5.05;2.80;;;6.60;99.90;;;;;;5009097;28;20054;-61
2024/01/09 12:27:30;;;;;;;5.93;2.65;;;6.50;99.90;;;;;;4993925;28;20046;-62
2024/01/09 12:29:56;;;;;;;4.75;2.90;;;6.60;99.90;;;;;;4992583;28;20042;-61
2024/01/09 12:32:22;;;;;;;5.32;3.20;;;6.60;99.90;;;;;;4996338;28;20042;-63
2024/01/09 12:34:48;;;;;;;5.80;3.20;;;6.60;99.90;;;;;;4995880;28;20106;-61
2024/01/09 12:37:14;;;;;;;5.95;2.90;;;6.60;99.90;;;;;;4995657;28;20152;-61
2024/01/09 12:39:39;;;;;;;4.10;2.80;;;6.60;99.90;;;;;;4976557;28;20787;-62
2024/01/09 12:42:12;;;;;;;5.25;2.72;;;6.60;99.90;;;;;;4992898;28;20397;-62
2024/01/09 12:44:39;;;;;;;4.07;2.60;;;6.60;99.90;;;;;;4996887;28;20038;-62
2024/01/09 12:47:09;;;;;;;4.75;3.30;;;6.60;99.90;;;;;;4996546;28;20046;-61